createdAt,value
2022-10-14T00:02:11.011Z,22.13
2022-10-14T00:04:38.768Z,22.25
2022-10-14T00:07:05.952Z,22.02
2022-10-14T00:09:33.756Z,21.73
2022-10-14T00:12:00.901Z,22.65
2022-10-14T00:14:28.028Z,21.45
2022-10-14T00:16:55.770Z,20.80
2022-10-14T00:19:22.924Z,21.33
2022-10-14T00:21:50.076Z,21.48
2022-10-14T00:24:18.776Z,21.55
2022-10-14T00:26:46.163Z,21.48
2022-10-14T00:29:14.697Z,19.95
2022-10-14T00:31:41.934Z,20.05
2022-10-14T00:34:12.835Z,19.60
2022-10-14T00:36:41.040Z,20.77
2022-10-14T00:39:08.304Z,19.88
2022-10-14T00:41:35.897Z,20.08
2022-10-14T00:44:06.101Z,19.23
2022-10-14T00:46:35.033Z,19.23
2022-10-14T00:49:14.042Z,21.65
2022-10-14T00:51:43.651Z,20.75
2022-10-14T00:54:12.239Z,18.40
2022-10-14T00:56:39.441Z,20.40
2022-10-14T00:59:07.114Z,20.05
2022-10-14T01:01:34.582Z,18.85
2022-10-14T01:04:02.165Z,17.77
2022-10-14T01:06:32.210Z,18.35
2022-10-14T01:09:05.624Z,19.08
2022-10-14T01:11:45.015Z,18.73
2022-10-14T01:14:12.174Z,19.08
2022-10-14T01:16:58.144Z,19.92
2022-10-14T01:19:31.639Z,20.13
2022-10-14T01:22:04.130Z,19.30
2022-10-14T01:24:34.107Z,18.98
2022-10-14T01:27:07.356Z,20.48
2022-10-14T01:29:53.273Z,19.63
2022-10-14T01:32:26.523Z,18.27
2022-10-14T01:34:56.190Z,18.90
2022-10-14T01:37:27.195Z,18.73
2022-10-14T01:39:57.848Z,19.00
2022-10-14T01:42:27.936Z,19.05
2022-10-14T01:44:58.273Z,18.58
2022-10-14T01:47:27.297Z,18.75
2022-10-14T01:50:03.116Z,18.63
2022-10-14T01:55:00.840Z,18.08
2022-10-14T01:57:30.517Z,15.70
2022-10-14T01:59:58.617Z,18.88
2022-10-14T02:02:25.900Z,18.08
2022-10-14T02:04:53.198Z,17.38
2022-10-14T02:07:40.285Z,17.23
2022-10-14T02:10:13.748Z,17.30
2022-10-14T02:12:43.758Z,16.55
2022-10-14T02:15:11.027Z,17.65
2022-10-14T02:17:41.262Z,16.75
2022-10-14T02:20:08.416Z,19.05
2022-10-14T02:22:40.363Z,17.33
2022-10-14T02:25:14.170Z,17.15
2022-10-14T02:27:43.646Z,17.83
2022-10-14T02:30:11.676Z,16.77
2022-10-14T02:32:39.912Z,16.80
2022-10-14T02:35:08.497Z,16.55
2022-10-14T02:37:36.220Z,15.63
2022-10-14T02:40:07.722Z,16.88
2022-10-14T02:42:34.966Z,16.67
2022-10-14T02:45:02.240Z,16.42
2022-10-14T02:47:33.539Z,15.85
2022-10-14T02:50:00.706Z,16.40
2022-10-14T02:52:27.839Z,16.65
2022-10-14T02:54:55.039Z,16.48
2022-10-14T02:57:22.170Z,17.02
2022-10-14T02:59:49.324Z,16.52
2022-10-14T03:02:16.647Z,16.95
2022-10-14T03:04:43.850Z,16.05
2022-10-14T03:07:11.095Z,17.38
2022-10-14T03:09:38.253Z,16.30
2022-10-14T03:12:05.475Z,16.90
2022-10-14T03:14:32.616Z,16.27
2022-10-14T03:16:59.767Z,17.25
2022-10-14T03:19:26.930Z,16.25
2022-10-14T03:21:54.066Z,16.75
2022-10-14T03:24:21.332Z,16.17
2022-10-14T03:26:48.477Z,15.73
2022-10-14T03:29:15.662Z,16.73
2022-10-14T03:31:42.827Z,15.95
2022-10-14T03:34:09.988Z,15.73
2022-10-14T03:36:37.128Z,16.02
2022-10-14T03:39:04.311Z,16.77
2022-10-14T03:41:31.457Z,15.60
2022-10-14T03:43:58.616Z,14.30
2022-10-14T03:46:25.735Z,16.25
2022-10-14T03:48:53.497Z,15.07
2022-10-14T03:51:20.808Z,14.65
2022-10-14T03:53:48.008Z,14.98
2022-10-14T03:56:15.219Z,14.40
2022-10-14T03:58:42.383Z,14.68
2022-10-14T04:01:09.584Z,15.18
2022-10-14T04:03:36.729Z,14.45
2022-10-14T04:06:03.865Z,15.77
2022-10-14T04:08:31.037Z,14.95
2022-10-14T04:10:58.685Z,15.30
2022-10-14T04:13:25.933Z,14.10
2022-10-14T04:15:53.122Z,15.27
2022-10-14T04:18:20.264Z,14.98
2022-10-14T04:20:47.846Z,13.10
2022-10-14T04:23:15.014Z,14.43
2022-10-14T04:25:42.184Z,15.07
2022-10-14T04:28:09.320Z,19.25
2022-10-14T04:30:36.598Z,14.27
2022-10-14T04:33:03.812Z,15.20
2022-10-14T04:35:30.992Z,14.60
2022-10-14T04:37:58.169Z,13.88
2022-10-14T04:40:26.170Z,14.63
2022-10-14T04:42:57.131Z,15.02
2022-10-14T04:45:24.377Z,14.48
2022-10-14T04:47:51.999Z,14.85
2022-10-14T04:50:19.904Z,14.98
2022-10-14T04:52:47.229Z,14.23
2022-10-14T04:55:14.613Z,14.40
2022-10-14T04:57:43.824Z,16.05
2022-10-14T05:00:12.240Z,13.98
2022-10-14T05:02:39.458Z,14.05
2022-10-14T05:05:07.564Z,14.30
2022-10-14T05:07:35.079Z,14.43
2022-10-14T05:10:04.466Z,14.30
2022-10-14T05:12:32.026Z,14.65
2022-10-14T05:14:59.278Z,13.75
2022-10-14T05:17:26.624Z,14.00
2022-10-14T05:19:53.808Z,14.55
2022-10-14T05:22:21.171Z,14.02
2022-10-14T05:24:48.573Z,13.93
2022-10-14T05:27:15.773Z,14.50
2022-10-14T05:29:42.968Z,14.80
2022-10-14T05:32:13.006Z,14.82
2022-10-14T05:34:40.196Z,12.73
2022-10-14T05:37:07.401Z,13.90
2022-10-14T05:39:37.457Z,14.38
2022-10-14T05:42:04.797Z,13.30
2022-10-14T05:44:31.987Z,13.75
2022-10-14T05:46:59.351Z,13.85
2022-10-14T05:49:26.488Z,14.05
2022-10-14T05:51:53.702Z,13.23
2022-10-14T05:54:20.838Z,14.25
2022-10-14T05:56:48.064Z,14.50
2022-10-14T05:59:15.192Z,15.30
2022-10-14T06:01:43.181Z,12.98
2022-10-14T06:04:16.262Z,14.13
2022-10-14T06:06:43.498Z,13.32
2022-10-14T06:09:11.649Z,14.38
2022-10-14T06:11:39.110Z,15.90
2022-10-14T06:14:06.281Z,15.75
2022-10-14T06:16:33.450Z,18.65
2022-10-14T06:19:00.624Z,17.60
2022-10-14T06:21:28.221Z,17.98
2022-10-14T06:23:55.496Z,17.15
2022-10-14T06:26:22.681Z,18.70
2022-10-14T06:28:49.935Z,16.80
2022-10-14T06:31:18.151Z,16.25
2022-10-14T06:33:45.436Z,15.68
2022-10-14T06:36:12.886Z,23.65
2022-10-14T06:38:40.173Z,16.67
2022-10-14T06:41:07.397Z,16.45
2022-10-14T06:43:35.689Z,16.15
2022-10-14T06:46:03.444Z,14.63
2022-10-14T06:48:30.961Z,17.05
2022-10-14T06:51:01.846Z,16.80
2022-10-14T06:53:29.500Z,16.20
2022-10-14T06:56:00.783Z,16.92
2022-10-14T06:58:28.650Z,18.38
2022-10-14T07:03:23.016Z,21.38
2022-10-14T07:05:50.260Z,17.15
2022-10-14T07:08:17.497Z,21.83
2022-10-14T07:10:44.657Z,21.63
2022-10-14T07:13:11.880Z,20.42
2022-10-14T07:15:39.555Z,19.48
2022-10-14T07:18:07.576Z,21.50
2022-10-14T07:20:35.165Z,24.52
2022-10-14T07:23:02.343Z,29.25
2022-10-14T07:25:29.558Z,24.83
2022-10-14T07:27:56.762Z,23.17
2022-10-14T07:30:23.940Z,25.95
2022-10-14T07:32:51.215Z,26.90
2022-10-14T07:35:23.140Z,29.90
2022-10-14T07:37:50.950Z,32.80
2022-10-14T07:40:18.148Z,29.38
2022-10-14T07:42:45.338Z,25.45
2022-10-14T07:45:16.166Z,25.70
2022-10-14T07:47:43.910Z,24.75
2022-10-14T07:50:11.280Z,27.58
2022-10-14T07:52:38.577Z,29.63
2022-10-14T07:55:06.263Z,25.50
2022-10-14T07:57:33.410Z,28.10
2022-10-14T08:00:00.721Z,30.67
2022-10-14T08:02:29.040Z,26.92
2022-10-14T08:05:13.112Z,23.80
2022-10-14T08:07:44.111Z,31.85
2022-10-14T08:10:11.413Z,20.17
2022-10-14T08:12:38.601Z,20.85
2022-10-14T08:15:05.905Z,25.55
2022-10-14T08:17:33.194Z,27.20
2022-10-14T08:20:00.613Z,20.50
2022-10-14T08:22:27.776Z,23.15
2022-10-14T08:24:55.042Z,23.30
2022-10-14T08:27:22.380Z,28.95
2022-10-14T08:29:49.557Z,24.05
2022-10-14T08:32:16.786Z,23.85
2022-10-14T08:34:43.957Z,24.00
2022-10-14T08:37:12.265Z,21.88
2022-10-14T08:39:39.725Z,27.05
2022-10-14T08:42:12.874Z,19.17
2022-10-14T08:44:50.880Z,24.80
2022-10-14T08:47:21.981Z,22.00
2022-10-14T08:49:52.237Z,32.55
2022-10-14T08:52:19.685Z,22.77
2022-10-14T08:54:49.818Z,24.70
2022-10-14T08:57:21.558Z,22.45
2022-10-14T08:59:49.436Z,20.38
2022-10-14T09:02:20.110Z,21.60
2022-10-14T09:04:47.585Z,19.27
2022-10-14T09:07:17.684Z,21.20
2022-10-14T09:09:46.604Z,20.60
2022-10-14T09:12:14.914Z,17.83
2022-10-14T09:14:49.865Z,23.30
2022-10-14T09:17:20.934Z,19.17
2022-10-14T09:20:17.390Z,22.98
2022-10-14T09:22:46.339Z,18.48
2022-10-14T09:25:17.136Z,20.77
2022-10-14T09:27:44.452Z,21.90
2022-10-14T09:30:15.842Z,22.30
2022-10-14T09:32:45.624Z,25.27
2022-10-14T09:35:15.816Z,24.60
2022-10-14T09:37:42.954Z,21.90
2022-10-14T09:40:16.573Z,26.58
2022-10-14T09:42:58.735Z,19.73
2022-10-14T09:45:27.130Z,27.45
2022-10-14T09:48:07.162Z,26.42
2022-10-14T09:50:36.970Z,23.00
2022-10-14T09:53:16.566Z,20.48
2022-10-14T09:55:52.797Z,18.88
2022-10-14T09:58:29.880Z,18.60
2022-10-14T10:00:57.980Z,27.25
2022-10-14T10:03:26.632Z,22.55
2022-10-14T10:06:01.535Z,27.33
2022-10-14T10:08:28.838Z,26.55
2022-10-14T10:11:06.869Z,22.77
2022-10-14T10:13:44.965Z,21.85
2022-10-14T10:16:23.204Z,28.85
2022-10-14T10:18:51.931Z,25.05
2022-10-14T10:21:20.388Z,29.85
2022-10-14T10:23:56.024Z,25.48
2022-10-14T10:26:29.480Z,25.88
2022-10-14T10:28:57.695Z,34.67
2022-10-14T10:31:37.275Z,25.17
2022-10-14T10:34:16.867Z,28.95
2022-10-14T10:36:48.239Z,30.23
2022-10-14T10:39:15.356Z,28.70
2022-10-14T10:41:51.928Z,41.03
2022-10-14T10:44:28.480Z,55.17
2022-10-14T10:47:02.453Z,53.72
2022-10-14T10:49:39.115Z,63.88
2022-10-14T10:52:20.352Z,80.30
2022-10-14T10:54:48.761Z,93.95
2022-10-14T10:57:30.386Z,95.60
2022-10-14T11:00:02.295Z,78.38
2022-10-14T11:02:44.844Z,77.50
2022-10-14T11:05:31.189Z,79.50
2022-10-14T11:08:18.629Z,78.43
2022-10-14T11:11:13.436Z,63.97
2022-10-14T11:13:52.665Z,70.65
2022-10-14T11:16:19.882Z,66.60
2022-10-14T11:18:47.578Z,62.13
2022-10-14T11:21:22.092Z,52.22
2022-10-14T11:23:59.636Z,56.35
2022-10-14T11:26:26.973Z,56.13
2022-10-14T11:29:03.877Z,55.75
2022-10-14T11:31:37.380Z,49.85
2022-10-14T11:34:07.576Z,53.30
2022-10-14T11:36:50.122Z,52.50
2022-10-14T11:39:20.164Z,47.38
2022-10-14T11:42:11.279Z,52.45
2022-10-14T11:44:39.800Z,43.60
2022-10-14T11:47:28.520Z,44.55
2022-10-14T11:50:06.026Z,43.67
2022-10-14T11:52:38.996Z,44.25
2022-10-14T11:55:17.196Z,41.90
2022-10-14T11:57:49.769Z,43.45
2022-10-14T12:00:22.046Z,45.00
2022-10-14T12:02:58.583Z,43.72
2022-10-14T12:05:45.042Z,38.90
2022-10-14T12:08:19.369Z,44.70
2022-10-14T12:10:48.468Z,45.90
2022-10-14T12:13:17.059Z,40.30
2022-10-14T12:15:50.878Z,38.13
2022-10-14T12:18:19.645Z,36.38
2022-10-14T12:20:46.980Z,31.98
2022-10-14T12:23:29.151Z,32.60
2022-10-14T12:25:59.616Z,34.05
2022-10-14T12:28:26.937Z,27.80
2022-10-14T12:31:14.056Z,31.45
2022-10-14T12:34:15.796Z,29.50
2022-10-14T12:36:44.074Z,34.83
2022-10-14T12:39:20.351Z,30.42
2022-10-14T12:42:00.511Z,31.48
2022-10-14T12:44:34.940Z,34.55
2022-10-14T12:47:03.041Z,35.28
2022-10-14T12:49:35.005Z,42.30
2022-10-14T12:52:06.956Z,42.65
2022-10-14T12:54:35.241Z,43.42
2022-10-14T12:57:05.261Z,39.80
2022-10-14T12:59:34.084Z,38.38
2022-10-14T13:02:04.565Z,37.10
2022-10-14T13:04:32.673Z,36.30
2022-10-14T13:07:39.831Z,33.25
2022-10-14T13:10:23.936Z,33.22
2022-10-14T13:12:51.112Z,34.42
2022-10-14T13:15:34.210Z,36.85
2022-10-14T13:18:21.600Z,48.50
2022-10-14T13:20:51.594Z,48.50
2022-10-14T13:23:37.787Z,50.85
2022-10-14T13:28:37.936Z,52.85
2022-10-14T13:31:23.968Z,48.15
2022-10-14T13:33:53.391Z,44.63
2022-10-14T13:36:24.412Z,41.15
2022-10-14T13:38:55.920Z,38.53
2022-10-14T13:41:30.961Z,41.42
2022-10-14T13:43:59.766Z,34.65
2022-10-14T13:46:34.958Z,33.83
2022-10-14T13:49:03.857Z,37.17
2022-10-14T13:51:37.644Z,35.72
2022-10-14T13:54:14.171Z,36.05
2022-10-14T13:56:41.391Z,37.63
2022-10-14T13:59:43.294Z,39.88
2022-10-14T14:02:15.563Z,48.53
2022-10-14T14:04:45.233Z,52.65
2022-10-14T14:07:38.226Z,52.50
2022-10-14T14:10:07.205Z,52.22
2022-10-14T14:12:34.476Z,52.60
2022-10-14T14:15:01.814Z,46.75
2022-10-14T14:17:32.414Z,47.20
2022-10-14T14:19:59.797Z,49.25
2022-10-14T14:22:28.148Z,44.05
2022-10-14T14:25:33.531Z,49.58
2022-10-14T14:28:02.339Z,47.90
2022-10-14T14:30:30.865Z,50.85
2022-10-14T14:33:00.166Z,51.30
2022-10-14T14:35:27.817Z,48.95
2022-10-14T14:37:56.421Z,49.50
2022-10-14T14:40:25.526Z,49.13
2022-10-14T14:43:02.762Z,48.30
2022-10-14T14:45:31.290Z,44.42
2022-10-14T14:48:01.975Z,48.03
2022-10-14T14:50:32.378Z,46.17
2022-10-14T14:53:03.533Z,48.75
2022-10-14T14:55:34.387Z,47.88
2022-10-14T14:58:02.781Z,45.38
2022-10-14T15:00:32.856Z,45.75
2022-10-14T15:03:01.362Z,45.35
2022-10-14T15:05:29.808Z,44.10
2022-10-14T15:07:57.267Z,44.40
2022-10-14T15:10:29.510Z,44.95
2022-10-14T15:12:58.287Z,43.05
2022-10-14T15:15:32.977Z,45.90
2022-10-14T15:18:05.980Z,44.28
2022-10-14T15:20:36.799Z,42.92
2022-10-14T15:23:23.897Z,42.60
2022-10-14T15:26:00.285Z,41.30
2022-10-14T15:28:31.660Z,44.33
2022-10-14T15:31:03.085Z,41.00
2022-10-14T15:33:32.839Z,43.65
2022-10-14T15:36:01.791Z,40.35
2022-10-14T15:41:03.838Z,41.17
2022-10-14T15:43:31.997Z,44.30
2022-10-14T15:46:18.767Z,41.92
2022-10-14T15:48:50.355Z,40.72
2022-10-14T15:51:18.192Z,45.10
2022-10-14T15:53:45.311Z,42.20
2022-10-14T15:56:12.623Z,43.60
2022-10-14T15:58:39.790Z,41.45
2022-10-14T16:01:07.329Z,39.97
2022-10-14T16:03:37.253Z,41.25
2022-10-14T16:06:06.058Z,40.38
2022-10-14T16:08:33.674Z,44.13
2022-10-14T16:11:00.885Z,41.00
2022-10-14T16:13:28.131Z,37.90
2022-10-14T16:15:55.331Z,37.53
2022-10-14T16:18:24.429Z,43.70
2022-10-14T16:20:51.816Z,40.25
2022-10-14T16:23:20.187Z,41.78
2022-10-14T16:25:49.006Z,41.78
2022-10-14T16:28:16.957Z,40.92
2022-10-14T16:30:48.808Z,39.55
2022-10-14T16:33:17.204Z,39.78
2022-10-14T16:35:44.706Z,38.83
2022-10-14T16:38:13.251Z,37.92
2022-10-14T16:40:40.590Z,37.92
2022-10-14T16:43:07.894Z,37.35
2022-10-14T16:45:35.078Z,38.67
2022-10-14T16:48:02.309Z,39.30
2022-10-14T16:50:29.525Z,33.78
2022-10-14T16:53:15.351Z,122.47
2022-10-14T16:55:42.469Z,181.15
2022-10-14T16:58:09.610Z,219.20
2022-10-14T17:00:36.744Z,194.98
2022-10-14T17:03:03.886Z,147.00
2022-10-14T17:05:31.067Z,142.25
2022-10-14T17:07:58.408Z,140.80
2022-10-14T17:10:25.692Z,130.32
2022-10-14T17:12:54.677Z,135.85
2022-10-14T17:15:22.533Z,127.05
2022-10-14T17:17:49.862Z,118.75
2022-10-14T17:20:17.200Z,122.13
2022-10-14T17:22:44.605Z,127.97
2022-10-14T17:25:12.145Z,120.20
2022-10-14T17:27:39.564Z,121.43
2022-10-14T17:30:07.128Z,119.35
2022-10-14T17:32:34.619Z,114.80
2022-10-14T17:35:01.817Z,110.35
2022-10-14T17:37:30.762Z,112.70
2022-10-14T17:39:57.930Z,109.97
2022-10-14T17:42:25.374Z,106.13
2022-10-14T17:44:52.635Z,109.78
2022-10-14T17:47:20.128Z,134.10
2022-10-14T17:49:47.934Z,216.63
2022-10-14T17:52:15.122Z,222.27
2022-10-14T17:54:42.268Z,246.10
2022-10-14T17:57:09.422Z,218.75
2022-10-14T17:59:36.569Z,195.48
2022-10-14T18:02:04.692Z,228.05
2022-10-14T18:04:32.718Z,251.43
2022-10-14T18:07:00.206Z,275.33
2022-10-14T18:09:27.413Z,300.63
2022-10-14T18:12:10.503Z,237.90
2022-10-14T18:14:39.555Z,239.77
2022-10-14T18:17:06.951Z,221.15
2022-10-14T18:19:35.454Z,218.70
2022-10-14T18:22:03.661Z,222.07
2022-10-14T18:24:30.942Z,210.48
2022-10-14T18:26:58.121Z,204.32
2022-10-14T18:29:25.312Z,200.38
2022-10-14T18:34:25.462Z,214.10
2022-10-14T18:36:52.680Z,198.10
2022-10-14T18:39:23.167Z,186.80
2022-10-14T18:41:50.311Z,192.77
2022-10-14T18:44:17.608Z,193.73
2022-10-14T18:46:47.680Z,188.57
2022-10-14T18:49:15.347Z,186.45
2022-10-14T18:51:43.326Z,192.82
2022-10-14T18:54:18.366Z,181.13
2022-10-14T18:56:46.077Z,178.63
2022-10-14T18:59:18.178Z,186.25
2022-10-14T19:01:46.113Z,168.55
2022-10-14T19:04:14.541Z,179.73
2022-10-14T19:06:44.891Z,174.25
2022-10-14T19:09:12.741Z,180.65
2022-10-14T19:11:41.198Z,177.50
2022-10-14T19:14:09.780Z,168.45
2022-10-14T19:16:37.815Z,167.10
2022-10-14T19:19:08.322Z,157.02
2022-10-14T19:21:35.563Z,167.27
2022-10-14T19:24:03.153Z,165.55
2022-10-14T19:26:31.798Z,161.43
2022-10-14T19:29:00.208Z,171.32
2022-10-14T19:31:31.820Z,168.55
2022-10-14T19:34:01.412Z,165.98
2022-10-14T19:36:29.070Z,161.13
2022-10-14T19:38:59.517Z,160.63
2022-10-14T19:41:30.943Z,162.30
2022-10-14T19:43:58.734Z,155.85
2022-10-14T19:46:29.240Z,156.77
2022-10-14T19:48:57.017Z,158.40
2022-10-14T19:51:24.500Z,153.70
2022-10-14T19:53:51.812Z,154.20
2022-10-14T19:56:20.658Z,153.55
2022-10-14T19:58:50.163Z,150.48
2022-10-14T20:01:18.585Z,145.15
2022-10-14T20:03:45.947Z,151.70
2022-10-14T20:06:13.915Z,150.90
2022-10-14T20:08:41.138Z,148.10
2022-10-14T20:11:09.222Z,146.25
2022-10-14T20:13:39.873Z,144.68
2022-10-14T20:16:08.426Z,139.32
2022-10-14T20:18:35.631Z,138.95
2022-10-14T20:21:03.203Z,142.75
2022-10-14T20:23:30.684Z,137.77
2022-10-14T20:26:01.319Z,132.75
2022-10-14T20:28:28.686Z,133.88
2022-10-14T20:30:57.326Z,157.10
2022-10-14T20:33:24.888Z,128.75
2022-10-14T20:36:05.808Z,120.60
2022-10-14T20:38:33.159Z,142.13
2022-10-14T20:41:10.558Z,139.82
2022-10-14T20:43:37.804Z,140.90
2022-10-14T20:46:04.993Z,131.80
2022-10-14T20:48:33.141Z,132.77
2022-10-14T20:51:00.312Z,127.53
2022-10-14T20:53:28.903Z,129.65
2022-10-14T20:56:01.341Z,134.40
2022-10-14T20:58:28.521Z,137.13
2022-10-14T21:01:04.356Z,133.30
2022-10-14T21:03:31.652Z,128.82
2022-10-14T21:06:01.747Z,129.85
2022-10-14T21:08:28.914Z,130.25
2022-10-14T21:11:02.809Z,124.18
2022-10-14T21:13:30.436Z,118.95
2022-10-14T21:15:57.779Z,124.78
2022-10-14T21:18:25.196Z,125.65
2022-10-14T21:23:24.966Z,122.40
2022-10-14T21:25:56.149Z,116.18
2022-10-14T21:28:23.444Z,116.93
2022-10-14T21:30:50.653Z,110.75
2022-10-14T21:33:17.802Z,113.07
2022-10-14T21:35:45.047Z,109.38
2022-10-14T21:38:12.331Z,106.30
2022-10-14T21:40:39.461Z,104.57
2022-10-14T21:43:06.719Z,106.82
2022-10-14T21:45:33.893Z,107.80
2022-10-14T21:48:01.022Z,107.97
2022-10-14T21:50:28.269Z,107.28
2022-10-14T21:52:55.439Z,98.65
2022-10-14T21:55:22.644Z,102.40
2022-10-14T21:57:51.356Z,102.32
2022-10-14T22:00:18.666Z,101.22
2022-10-14T22:02:45.882Z,103.50
2022-10-14T22:05:13.203Z,98.90
2022-10-14T22:07:40.332Z,97.28
2022-10-14T22:10:27.554Z,100.30
2022-10-14T22:12:55.907Z,101.25
2022-10-14T22:15:23.109Z,101.32
2022-10-14T22:17:50.535Z,96.45
2022-10-14T22:20:17.984Z,97.55
2022-10-14T22:22:45.481Z,92.97
2022-10-14T22:25:12.731Z,95.68
2022-10-14T22:27:39.896Z,93.18
2022-10-14T22:30:08.206Z,94.25
2022-10-14T22:32:35.373Z,92.72
2022-10-14T22:35:02.488Z,92.60
2022-10-14T22:37:31.798Z,93.25
2022-10-14T22:39:58.964Z,95.82
2022-10-14T22:42:26.290Z,94.05
2022-10-14T22:44:53.521Z,95.70
2022-10-14T22:47:21.006Z,90.93
2022-10-14T22:49:48.564Z,88.13
2022-10-14T22:52:15.691Z,89.65
2022-10-14T22:54:43.243Z,89.85
2022-10-14T22:57:10.851Z,87.93
2022-10-14T22:59:38.033Z,86.57
2022-10-14T23:02:05.339Z,87.70
2022-10-14T23:04:32.485Z,86.53
2022-10-14T23:07:04.349Z,88.65
2022-10-14T23:12:01.063Z,85.00
2022-10-14T23:14:30.384Z,78.00
2022-10-14T23:16:57.545Z,84.15
2022-10-14T23:19:25.946Z,83.25
2022-10-14T23:21:53.284Z,81.88
2022-10-14T23:24:20.613Z,83.70
2022-10-14T23:26:47.836Z,84.47
2022-10-14T23:29:14.957Z,82.53
2022-10-14T23:31:42.748Z,80.30
2022-10-14T23:34:14.234Z,74.82
2022-10-14T23:36:41.809Z,78.30
2022-10-14T23:39:09.213Z,77.18
2022-10-14T23:41:36.391Z,75.53
2022-10-14T23:44:03.574Z,73.97
2022-10-14T23:46:30.763Z,75.35
2022-10-14T23:49:07.485Z,74.45
2022-10-14T23:51:45.205Z,76.82
2022-10-14T23:54:12.360Z,76.13
2022-10-14T23:56:39.950Z,75.35
2022-10-14T23:59:07.153Z,75.22
